createdAt,value
2018-04-17T00:01:16.470Z,51.73
2018-04-17T00:04:18.985Z,59.07
2018-04-17T00:07:21.452Z,58.93
2018-04-17T00:10:23.961Z,61.20
2018-04-17T00:13:26.475Z,62.33
2018-04-17T00:16:28.932Z,62.43
2018-04-17T00:19:31.551Z,58.40
2018-04-17T00:22:34.031Z,66.03
2018-04-17T00:25:36.519Z,57.60
2018-04-17T00:28:39.011Z,65.60
2018-04-17T00:31:41.555Z,83.20
2018-04-17T00:34:43.989Z,73.23
2018-04-17T00:37:46.496Z,73.13
2018-04-17T00:40:49.094Z,71.80
2018-04-17T00:43:51.560Z,57.83
2018-04-17T00:46:54.052Z,63.87
2018-04-17T00:49:56.537Z,69.37
2018-04-17T00:52:59.016Z,68.33
2018-04-17T00:56:01.489Z,69.00
2018-04-17T00:59:04.046Z,73.57
2018-04-17T01:02:06.522Z,81.93
2018-04-17T01:05:09.013Z,83.33
2018-04-17T01:08:11.541Z,75.10
2018-04-17T01:11:14.047Z,95.93
2018-04-17T01:14:16.519Z,89.57
2018-04-17T01:17:18.987Z,95.77
2018-04-17T01:20:21.490Z,76.50
2018-04-17T01:23:23.946Z,83.90
2018-04-17T01:26:26.439Z,79.33
2018-04-17T01:29:28.898Z,87.17
2018-04-17T01:32:31.351Z,81.03
2018-04-17T01:35:33.892Z,81.37
2018-04-17T01:38:36.332Z,93.80
2018-04-17T01:41:38.788Z,84.53
2018-04-17T01:44:41.233Z,91.17
2018-04-17T01:47:43.719Z,82.17
2018-04-17T01:50:46.196Z,91.70
2018-04-17T01:53:48.669Z,77.30
2018-04-17T01:56:51.134Z,105.60
2018-04-17T01:59:53.609Z,87.57
2018-04-17T02:02:56.100Z,98.10
2018-04-17T02:05:58.602Z,88.70
2018-04-17T02:09:01.120Z,87.17
2018-04-17T02:12:03.621Z,83.87
2018-04-17T02:15:06.167Z,88.67
2018-04-17T02:18:08.731Z,87.80
2018-04-17T02:21:11.175Z,88.10
2018-04-17T02:24:13.754Z,96.07
2018-04-17T02:27:16.216Z,95.87
2018-04-17T02:30:18.771Z,78.03
2018-04-17T02:33:21.232Z,88.60
2018-04-17T02:36:23.753Z,89.80
2018-04-17T02:39:26.212Z,92.50
2018-04-17T02:42:28.727Z,98.20
2018-04-17T02:45:31.222Z,112.90
2018-04-17T02:48:33.687Z,117.33
2018-04-17T02:51:36.192Z,119.57
2018-04-17T02:54:38.705Z,114.60
2018-04-17T02:57:41.161Z,105.23
2018-04-17T03:00:43.730Z,118.97
2018-04-17T03:03:46.245Z,129.03
2018-04-17T03:06:48.793Z,121.90
2018-04-17T03:09:51.284Z,108.90
2018-04-17T03:12:53.825Z,121.60
2018-04-17T03:15:56.349Z,115.70
2018-04-17T03:18:58.825Z,114.07
2018-04-17T03:22:01.324Z,125.23
2018-04-17T03:25:03.889Z,113.23
2018-04-17T03:28:06.388Z,116.90
2018-04-17T03:31:08.853Z,125.17
2018-04-17T03:34:11.356Z,121.97
2018-04-17T03:37:13.959Z,115.77
2018-04-17T03:40:16.530Z,128.97
2018-04-17T03:43:18.999Z,112.80
2018-04-17T03:46:21.518Z,117.47
2018-04-17T03:49:24.025Z,145.83
2018-04-17T03:52:26.500Z,122.20
2018-04-17T03:55:29.033Z,132.23
2018-04-17T03:58:31.562Z,138.07
2018-04-17T04:01:34.110Z,155.63
2018-04-17T04:04:36.610Z,162.50
2018-04-17T04:07:39.072Z,165.57
2018-04-17T04:10:41.574Z,163.17
2018-04-17T04:13:44.024Z,154.33
2018-04-17T04:16:58.384Z,137.37
2018-04-17T04:20:12.686Z,174.80
2018-04-17T04:23:27.159Z,173.90
2018-04-17T04:26:31.358Z,187.90
2018-04-17T04:29:33.861Z,189.53
2018-04-17T04:32:36.359Z,194.00
2018-04-17T04:35:38.953Z,177.57
2018-04-17T04:38:41.516Z,176.93
2018-04-17T04:41:44.142Z,167.80
2018-04-17T04:44:46.755Z,199.13
2018-04-17T04:47:49.258Z,193.20
2018-04-17T04:50:51.783Z,191.57
2018-04-17T04:53:54.280Z,211.23
2018-04-17T04:56:56.771Z,213.03
2018-04-17T04:59:59.268Z,187.10
2018-04-17T05:03:01.823Z,163.40
2018-04-17T05:06:04.338Z,158.83
2018-04-17T05:09:06.811Z,138.10
2018-04-17T05:12:09.334Z,119.27
2018-04-17T05:15:11.819Z,120.47
2018-04-17T05:18:14.316Z,118.80
2018-04-17T05:21:16.796Z,89.60
2018-04-17T05:24:19.306Z,72.43
2018-04-17T05:27:21.810Z,62.67
2018-04-17T05:30:24.328Z,61.43
2018-04-17T05:33:26.834Z,61.07
2018-04-17T05:36:29.296Z,53.73
2018-04-17T05:39:31.766Z,59.80
2018-04-17T05:42:34.231Z,50.40
2018-04-17T05:45:36.676Z,50.63
2018-04-17T05:48:39.214Z,43.93
2018-04-17T05:51:41.684Z,43.20
2018-04-17T05:54:44.184Z,47.80
2018-04-17T05:57:46.692Z,44.90
2018-04-17T06:00:49.136Z,41.77
2018-04-17T06:03:51.630Z,42.10
2018-04-17T06:06:54.066Z,45.77
2018-04-17T06:09:56.612Z,46.97
2018-04-17T06:12:59.115Z,45.60
2018-04-17T06:16:01.606Z,43.50
2018-04-17T06:19:04.196Z,50.23
2018-04-17T06:22:06.697Z,48.53
2018-04-17T06:25:09.177Z,48.47
2018-04-17T06:28:11.667Z,49.30
2018-04-17T06:31:14.115Z,45.60
2018-04-17T06:34:16.576Z,44.07
2018-04-17T06:37:19.020Z,42.90
2018-04-17T06:40:21.514Z,47.77
2018-04-17T06:43:23.981Z,43.57
2018-04-17T06:46:26.462Z,40.60
2018-04-17T06:49:29.000Z,41.70
2018-04-17T06:52:31.481Z,37.30
2018-04-17T06:55:33.981Z,39.40
2018-04-17T06:58:36.460Z,44.57
2018-04-17T07:01:38.996Z,47.87
2018-04-17T07:04:41.467Z,43.23
2018-04-17T07:07:44.028Z,50.97
2018-04-17T07:10:46.584Z,52.30
2018-04-17T07:13:49.248Z,54.37
2018-04-17T07:16:51.698Z,47.70
2018-04-17T07:19:54.187Z,50.30
2018-04-17T07:22:56.668Z,50.13
2018-04-17T07:25:59.206Z,51.70
2018-04-17T07:29:01.701Z,46.73
2018-04-17T07:32:04.154Z,47.23
2018-04-17T07:35:06.647Z,51.03
2018-04-17T07:38:09.131Z,42.60
2018-04-17T07:41:11.627Z,41.17
2018-04-17T07:44:14.090Z,40.00
2018-04-17T07:47:30.363Z,44.33
2018-04-17T07:50:32.823Z,42.23
2018-04-17T07:53:36.938Z,46.43
2018-04-17T07:56:39.454Z,42.60
2018-04-17T07:59:41.936Z,40.23
2018-04-17T08:02:44.481Z,38.67
2018-04-17T08:05:46.926Z,45.03
2018-04-17T08:08:49.504Z,40.10
2018-04-17T08:11:51.984Z,40.50
2018-04-17T08:14:54.507Z,41.23
2018-04-17T08:17:56.967Z,38.40
2018-04-17T08:20:59.467Z,35.70
2018-04-17T08:24:01.999Z,42.47
2018-04-17T08:27:04.457Z,40.93
2018-04-17T08:30:06.972Z,41.67
2018-04-17T08:33:09.514Z,43.73
2018-04-17T08:36:12.018Z,40.90
2018-04-17T08:39:14.517Z,45.87
2018-04-17T08:42:16.997Z,46.17
2018-04-17T08:45:19.473Z,49.17
2018-04-17T08:48:22.053Z,43.83
2018-04-17T08:51:24.604Z,45.03
2018-04-17T08:54:27.091Z,51.30
2018-04-17T08:57:29.631Z,44.80
2018-04-17T09:00:32.113Z,49.80
2018-04-17T09:03:34.608Z,46.90
2018-04-17T09:06:37.083Z,43.57
2018-04-17T09:09:39.637Z,46.47
2018-04-17T09:12:42.091Z,41.23
2018-04-17T09:15:44.568Z,40.73
2018-04-17T09:18:47.128Z,46.23
2018-04-17T09:21:49.681Z,40.13
2018-04-17T09:24:52.249Z,40.77
2018-04-17T09:27:54.716Z,40.73
2018-04-17T09:30:57.229Z,39.73
2018-04-17T09:33:59.740Z,38.33
2018-04-17T09:37:02.245Z,40.00
2018-04-17T09:40:04.704Z,33.83
2018-04-17T09:43:07.193Z,35.20
2018-04-17T09:46:09.669Z,33.67
2018-04-17T09:49:12.172Z,36.27
2018-04-17T09:52:14.650Z,30.40
2018-04-17T09:55:17.103Z,35.20
2018-04-17T09:58:19.593Z,35.63
2018-04-17T10:01:22.093Z,39.27
2018-04-17T10:04:24.644Z,33.03
2018-04-17T10:07:27.142Z,35.70
2018-04-17T10:10:29.659Z,35.93
2018-04-17T10:13:32.236Z,34.30
2018-04-17T10:16:34.699Z,35.40
2018-04-17T10:19:37.197Z,37.37
2018-04-17T10:22:39.712Z,29.63
2018-04-17T10:25:42.208Z,32.17
2018-04-17T10:28:44.691Z,27.07
2018-04-17T10:31:47.196Z,24.90
2018-04-17T10:34:49.666Z,18.60
2018-04-17T10:37:52.167Z,18.77
2018-04-17T10:40:54.667Z,21.20
2018-04-17T10:43:57.150Z,17.93
2018-04-17T10:46:59.598Z,17.83
2018-04-17T10:50:02.138Z,18.93
2018-04-17T10:53:04.649Z,18.43
2018-04-17T10:56:07.176Z,16.73
2018-04-17T10:59:09.676Z,19.53
2018-04-17T11:02:12.144Z,23.10
2018-04-17T11:05:14.659Z,21.83
2018-04-17T11:08:17.122Z,18.93
2018-04-17T11:11:19.699Z,19.50
2018-04-17T11:14:22.260Z,21.17
2018-04-17T11:17:24.819Z,17.90
2018-04-17T11:20:27.379Z,14.63
2018-04-17T11:23:29.879Z,16.00
2018-04-17T11:26:32.344Z,13.90
2018-04-17T11:29:34.866Z,13.33
2018-04-17T11:32:37.314Z,9.90
2018-04-17T11:35:39.899Z,13.40
2018-04-17T11:38:42.389Z,9.47
2018-04-17T11:41:44.898Z,10.17
2018-04-17T11:44:47.355Z,12.10
2018-04-17T11:47:49.819Z,11.13
2018-04-17T11:50:52.324Z,11.53
2018-04-17T11:53:54.835Z,8.97
2018-04-17T11:56:57.372Z,11.57
2018-04-17T11:59:59.829Z,13.17
2018-04-17T12:03:06.105Z,13.63
2018-04-17T12:06:08.665Z,12.90
2018-04-17T12:09:11.178Z,11.50
2018-04-17T12:12:13.668Z,17.63
2018-04-17T12:15:16.156Z,14.90
2018-04-17T12:18:18.691Z,13.30
2018-04-17T12:21:21.210Z,16.53
2018-04-17T12:24:23.654Z,21.03
2018-04-17T12:27:26.144Z,12.33
2018-04-17T12:30:28.620Z,19.00
2018-04-17T12:33:31.138Z,15.47
2018-04-17T12:36:33.647Z,15.83
2018-04-17T12:39:36.139Z,18.87
2018-04-17T12:42:38.600Z,21.83
2018-04-17T12:45:41.111Z,18.47
2018-04-17T12:48:43.574Z,17.17
2018-04-17T12:51:46.077Z,20.20
2018-04-17T12:54:48.563Z,14.10
2018-04-17T12:57:51.039Z,19.60
2018-04-17T13:00:53.550Z,17.47
2018-04-17T13:03:56.028Z,17.27
2018-04-17T13:06:58.572Z,20.20
2018-04-17T13:10:01.039Z,19.33
2018-04-17T13:13:03.539Z,18.13
2018-04-17T13:16:06.102Z,19.87
2018-04-17T13:19:08.614Z,18.83
2018-04-17T13:22:11.105Z,15.77
2018-04-17T13:25:13.589Z,16.17
2018-04-17T13:28:16.091Z,21.20
2018-04-17T13:31:18.535Z,17.50
2018-04-17T13:34:21.070Z,15.90
2018-04-17T13:37:23.532Z,17.10
2018-04-17T13:40:26.021Z,20.23
2018-04-17T13:43:28.543Z,19.83
2018-04-17T13:46:31.056Z,17.60
2018-04-17T13:49:33.578Z,17.57
2018-04-17T13:52:36.105Z,19.77
2018-04-17T13:55:38.576Z,15.37
2018-04-17T13:58:41.060Z,19.40
2018-04-17T14:01:43.622Z,22.17
2018-04-17T14:04:46.110Z,20.20
2018-04-17T14:07:48.609Z,20.00
2018-04-17T14:10:51.206Z,15.97
2018-04-17T14:13:53.763Z,18.00
2018-04-17T14:16:56.254Z,19.43
2018-04-17T14:19:58.721Z,14.07
2018-04-17T14:23:01.226Z,14.43
2018-04-17T14:26:03.734Z,15.27
2018-04-17T14:29:06.234Z,12.73
2018-04-17T14:32:08.835Z,16.80
2018-04-17T14:35:11.361Z,17.00
2018-04-17T14:38:13.948Z,12.57
2018-04-17T14:41:16.428Z,14.83
2018-04-17T14:44:18.996Z,14.40
2018-04-17T14:47:21.525Z,13.00
2018-04-17T14:50:23.982Z,15.93
2018-04-17T14:53:26.477Z,18.67
2018-04-17T14:56:28.983Z,13.60
2018-04-17T14:59:31.580Z,15.90
2018-04-17T15:02:36.524Z,13.30
2018-04-17T15:05:39.241Z,17.70
2018-04-17T15:08:41.767Z,14.50
2018-04-17T15:11:44.235Z,15.60
2018-04-17T15:14:46.723Z,10.50
2018-04-17T15:17:49.223Z,12.53
2018-04-17T15:20:51.683Z,13.10
2018-04-17T15:23:54.248Z,11.03
2018-04-17T15:26:56.697Z,15.80
2018-04-17T15:29:59.477Z,12.67
2018-04-17T15:33:01.942Z,14.90
2018-04-17T15:36:04.423Z,17.07
2018-04-17T15:39:06.962Z,20.43
2018-04-17T15:42:09.417Z,11.80
2018-04-17T15:45:11.987Z,17.33
2018-04-17T15:48:14.502Z,19.73
2018-04-17T15:51:17.013Z,13.60
2018-04-17T15:54:19.482Z,14.37
2018-04-17T15:57:22.032Z,15.87
2018-04-17T16:00:24.593Z,12.87
2018-04-17T16:03:27.162Z,16.00
2018-04-17T16:06:29.721Z,21.47
2018-04-17T16:09:32.188Z,20.80
2018-04-17T16:12:34.696Z,16.90
2018-04-17T16:15:37.132Z,16.23
2018-04-17T16:18:39.609Z,26.50
2018-04-17T16:21:42.113Z,15.30
2018-04-17T16:24:44.649Z,14.00
2018-04-17T16:27:47.133Z,14.67
2018-04-17T16:30:49.634Z,21.80
2018-04-17T16:33:52.130Z,19.37
2018-04-17T16:36:54.613Z,16.60
2018-04-17T16:39:57.094Z,14.00
2018-04-17T16:42:59.571Z,18.83
2018-04-17T16:46:02.080Z,16.93
2018-04-17T16:49:04.679Z,17.23
2018-04-17T16:52:07.144Z,21.40
2018-04-17T16:55:09.611Z,18.30
2018-04-17T16:58:12.172Z,20.20
2018-04-17T17:01:14.739Z,15.57
2018-04-17T17:04:17.169Z,19.37
2018-04-17T17:07:19.688Z,19.47
2018-04-17T17:10:22.213Z,15.93
2018-04-17T17:13:24.744Z,15.03
2018-04-17T17:16:27.336Z,22.83
2018-04-17T17:19:29.899Z,18.70
2018-04-17T17:22:32.559Z,16.90
2018-04-17T17:25:35.106Z,23.63
2018-04-17T17:28:37.590Z,21.03
2018-04-17T17:31:40.099Z,17.40
2018-04-17T17:34:42.624Z,11.20
2018-04-17T17:37:45.143Z,14.73
2018-04-17T17:40:47.693Z,14.80
2018-04-17T17:43:50.307Z,14.33
2018-04-17T17:46:52.825Z,19.23
2018-04-17T17:49:55.322Z,15.73
2018-04-17T17:52:57.894Z,17.83
2018-04-17T17:56:00.461Z,12.63
2018-04-17T17:59:03.031Z,17.50
2018-04-17T18:02:05.564Z,20.47
2018-04-17T18:05:08.145Z,24.83
2018-04-17T18:08:10.828Z,22.20
2018-04-17T18:11:13.523Z,21.53
2018-04-17T18:14:16.032Z,19.30
2018-04-17T18:17:18.531Z,28.60
2018-04-17T18:20:21.044Z,18.80
2018-04-17T18:23:23.526Z,22.60
2018-04-17T18:26:26.100Z,29.07
2018-04-17T18:29:28.569Z,22.00
2018-04-17T18:32:31.103Z,20.57
2018-04-17T18:35:33.599Z,20.30
2018-04-17T18:38:36.141Z,22.50
2018-04-17T18:41:38.621Z,22.77
2018-04-17T18:44:41.155Z,20.47
2018-04-17T18:47:43.685Z,22.17
2018-04-17T18:50:46.166Z,23.70
2018-04-17T18:53:48.708Z,23.07
2018-04-17T18:56:51.236Z,22.70
2018-04-17T18:59:53.785Z,27.50
2018-04-17T19:02:56.365Z,23.00
2018-04-17T19:05:58.861Z,24.53
2018-04-17T19:09:01.378Z,31.07
2018-04-17T19:12:03.899Z,30.40
2018-04-17T19:15:06.587Z,25.47
2018-04-17T19:18:09.234Z,28.63
2018-04-17T19:21:11.786Z,27.77
2018-04-17T19:24:14.368Z,23.87
2018-04-17T19:27:16.919Z,28.93
2018-04-17T19:30:19.512Z,28.27
2018-04-17T19:33:22.965Z,22.77
2018-04-17T19:36:25.503Z,23.33
2018-04-17T19:39:28.042Z,29.57
2018-04-17T19:42:30.509Z,22.73
2018-04-17T19:45:33.272Z,21.17
2018-04-17T19:48:35.788Z,25.70
2018-04-17T19:51:38.291Z,22.50
2018-04-17T19:54:40.880Z,22.03
2018-04-17T19:57:44.259Z,23.87
2018-04-17T20:00:49.674Z,23.50
2018-04-17T20:03:52.453Z,25.47
2018-04-17T20:06:54.943Z,26.80
2018-04-17T20:09:57.465Z,26.50
2018-04-17T20:13:00.040Z,25.20
2018-04-17T20:16:02.516Z,23.03
2018-04-17T20:19:05.157Z,19.60
2018-04-17T20:22:07.679Z,27.07
2018-04-17T20:25:10.163Z,22.40
2018-04-17T20:28:12.670Z,20.53
2018-04-17T20:31:15.246Z,22.27
2018-04-17T20:34:17.730Z,22.20
2018-04-17T20:37:20.247Z,23.27
2018-04-17T20:40:22.763Z,23.50
2018-04-17T20:43:25.243Z,20.30
2018-04-17T20:46:27.793Z,22.83
2018-04-17T20:49:30.253Z,19.87
2018-04-17T20:52:32.765Z,21.80
2018-04-17T20:55:35.268Z,23.00
2018-04-17T20:58:37.800Z,18.57
2018-04-17T21:01:40.275Z,18.93
2018-04-17T21:04:42.776Z,18.20
2018-04-17T21:07:45.230Z,21.23
2018-04-17T21:10:47.761Z,18.67
2018-04-17T21:13:50.238Z,15.60
2018-04-17T21:16:52.742Z,13.43
2018-04-17T21:19:55.233Z,21.83
2018-04-17T21:22:57.815Z,21.03
2018-04-17T21:26:00.347Z,16.07
2018-04-17T21:29:02.823Z,30.23
2018-04-17T21:32:05.316Z,16.40
2018-04-17T21:35:07.820Z,17.90
2018-04-17T21:38:10.312Z,16.40
2018-04-17T21:41:12.867Z,18.90
2018-04-17T21:44:15.336Z,21.10
2018-04-17T21:47:17.875Z,24.60
2018-04-17T21:50:20.386Z,23.90
2018-04-17T21:53:22.924Z,24.93
2018-04-17T21:56:25.423Z,24.23
2018-04-17T21:59:27.926Z,20.80
2018-04-17T22:02:30.424Z,19.57
2018-04-17T22:05:32.896Z,20.00
2018-04-17T22:08:35.418Z,17.73
2018-04-17T22:11:37.963Z,23.13
2018-04-17T22:14:40.509Z,19.07
2018-04-17T22:17:42.954Z,16.90
2018-04-17T22:20:45.442Z,17.93
2018-04-17T22:23:47.916Z,21.07
2018-04-17T22:26:50.542Z,17.60
2018-04-17T22:29:52.974Z,21.07
2018-04-17T22:32:55.440Z,21.40
2018-04-17T22:35:57.917Z,19.37
2018-04-17T22:39:00.508Z,19.63
2018-04-17T22:42:02.986Z,22.50
2018-04-17T22:45:05.477Z,24.73
2018-04-17T22:48:07.965Z,20.30
2018-04-17T22:51:10.522Z,20.13
2018-04-17T22:54:12.985Z,21.33
2018-04-17T22:57:15.481Z,21.90
2018-04-17T23:00:17.941Z,24.60
2018-04-17T23:03:20.446Z,18.43
2018-04-17T23:06:22.990Z,24.80
2018-04-17T23:09:25.465Z,17.43
2018-04-17T23:12:27.957Z,18.60
2018-04-17T23:15:30.402Z,18.90
2018-04-17T23:18:32.866Z,24.93
2018-04-17T23:21:35.355Z,24.27
2018-04-17T23:24:37.832Z,20.17
2018-04-17T23:27:40.412Z,19.13
2018-04-17T23:30:42.986Z,20.43
2018-04-17T23:33:45.472Z,21.30
2018-04-17T23:36:47.923Z,19.63
2018-04-17T23:39:50.443Z,20.63
2018-04-17T23:42:52.957Z,21.87
2018-04-17T23:45:55.455Z,21.53
2018-04-17T23:48:57.971Z,29.53
2018-04-17T23:52:00.500Z,19.30
2018-04-17T23:55:02.998Z,19.90
2018-04-17T23:58:05.448Z,17.33
